Time;durP1;ratioP1;P1;durP2;ratioP2;P2;SDS_P1;SDS_P2;PMS_P1;PMS_P2;Temp;Humidity;BMP_temperature;BMP_pressure;BME280_temperature;BME280_humidity;BME280_pressure;Samples;Min_cycle;Max_cycle;Signal;HPM_P1;HPM_P2
2021/03/18 00:00:55;;;;;;;3.63;2.00;;;5.50;62.90;;;;;;6220972;23;20032;-78
2021/03/18 00:03:26;;;;;;;8.50;2.70;;;5.50;63.00;;;;;;6221248;23;20500;-77
2021/03/18 00:05:53;;;;;;;5.93;2.13;;;5.40;63.50;;;;;;6221774;23;20423;-77
2021/03/18 00:08:21;;;;;;;3.77;2.07;;;5.40;63.50;;;;;;6248599;23;20011;-77
2021/03/18 00:10:50;;;;;;;5.03;2.43;;;5.30;63.90;;;;;;6221697;23;20331;-78
2021/03/18 00:13:18;;;;;;;4.27;2.13;;;5.30;64.10;;;;;;6222162;23;20023;-78
2021/03/18 00:15:45;;;;;;;3.10;2.10;;;5.20;64.50;;;;;;6248279;23;20007;-78
2021/03/18 00:18:14;;;;;;;4.10;2.00;;;5.20;65.00;;;;;;6221396;23;20015;-76
2021/03/18 00:20:41;;;;;;;2.77;1.63;;;5.20;64.70;;;;;;6221621;23;20455;-76
2021/03/18 00:23:07;;;;;;;3.60;1.73;;;5.20;64.70;;;;;;6248292;23;20000;-76
2021/03/18 00:25:33;;;;;;;5.83;2.37;;;5.20;64.80;;;;;;6221342;23;20008;-76
2021/03/18 00:28:00;;;;;;;4.80;2.10;;;5.20;64.90;;;;;;6221981;23;20431;-76
2021/03/18 00:30:27;;;;;;;4.60;1.80;;;5.10;65.20;;;;;;6248441;23;20008;-77
2021/03/18 00:32:54;;;;;;;7.87;2.37;;;5.10;65.30;;;;;;6248238;23;20001;-77
2021/03/18 00:35:21;;;;;;;7.67;2.60;;;5.00;65.60;;;;;;6221476;23;20358;-77
2021/03/18 00:37:50;;;;;;;3.63;1.70;;;4.90;66.10;;;;;;6247308;23;20020;-77
2021/03/18 00:40:24;;;;;;;2.73;1.60;;;4.90;66.80;;;;;;6221427;23;20020;-76
2021/03/18 00:43:02;;;;;;;6.53;2.03;;;4.80;66.70;;;;;;6221020;23;20023;-77
2021/03/18 00:45:31;;;;;;;3.90;2.10;;;4.80;67.00;;;;;;6221932;23;20442;-76
2021/03/18 00:47:59;;;;;;;4.23;1.80;;;4.80;66.80;;;;;;6220787;23;20066;-78
2021/03/18 00:50:37;;;;;;;4.63;1.80;;;4.80;66.90;;;;;;6221350;23;20461;-76
2021/03/18 00:53:04;;;;;;;4.33;1.90;;;4.80;66.70;;;;;;6247789;23;20004;-77
2021/03/18 00:55:30;;;;;;;5.77;1.90;;;4.70;67.00;;;;;;6221509;23;20004;-76
2021/03/18 00:57:57;;;;;;;3.47;1.50;;;4.70;67.20;;;;;;6220409;23;20443;-76
2021/03/18 01:00:33;;;;;;;3.70;1.87;;;4.70;67.20;;;;;;6247487;23;20505;-76
2021/03/18 01:03:00;;;;;;;4.90;2.37;;;4.80;66.80;;;;;;6247014;23;20056;-75
2021/03/18 01:05:56;;;;;;;7.97;2.00;;;4.80;66.40;;;;;;6247410;23;20015;-76
2021/03/18 01:08:26;;;;;;;6.57;2.43;;;4.80;66.90;;;;;;6248944;23;20015;-76
2021/03/18 01:10:55;;;;;;;5.80;2.10;;;4.80;67.50;;;;;;6247571;23;20008;-77
2021/03/18 01:13:23;;;;;;;4.90;2.37;;;4.70;67.50;;;;;;6248055;23;20004;-75
2021/03/18 01:16:04;;;;;;;4.50;2.37;;;4.60;67.90;;;;;;6221255;23;20004;-77
2021/03/18 01:18:39;;;;;;;7.20;2.13;;;4.70;67.60;;;;;;6248306;23;20036;-77
2021/03/18 01:21:07;;;;;;;3.70;2.17;;;4.70;67.40;;;;;;6247879;23;19997;-77
2021/03/18 01:23:34;;;;;;;5.87;2.07;;;4.60;67.70;;;;;;6246123;23;20000;-77
2021/03/18 01:26:00;;;;;;;5.07;2.00;;;4.50;68.50;;;;;;6218078;23;20011;-77
2021/03/18 01:28:26;;;;;;;6.30;2.40;;;4.50;68.80;;;;;;6245030;23;20371;-77
2021/03/18 01:30:53;;;;;;;6.23;2.33;;;4.50;68.60;;;;;;6217843;23;20023;-77
2021/03/18 01:33:19;;;;;;;5.70;2.50;;;4.60;69.10;;;;;;6219470;23;20004;-77
2021/03/18 01:35:45;;;;;;;7.70;2.50;;;4.60;68.30;;;;;;6219652;23;20050;-77
2021/03/18 01:38:11;;;;;;;3.97;2.13;;;4.50;68.40;;;;;;6219803;23;20039;-77
2021/03/18 01:40:37;;;;;;;4.43;2.40;;;4.60;68.80;;;;;;6247145;23;20435;-77
2021/03/18 01:43:03;;;;;;;3.83;1.90;;;4.50;69.00;;;;;;6219375;23;20035;-78
2021/03/18 01:45:29;;;;;;;7.23;2.73;;;4.40;69.50;;;;;;6247230;23;20363;-77
2021/03/18 01:47:56;;;;;;;6.70;2.30;;;4.50;69.00;;;;;;6246275;23;20026;-77
2021/03/18 01:50:24;;;;;;;5.97;2.30;;;4.40;69.10;;;;;;6220499;23;20007;-77
2021/03/18 01:52:50;;;;;;;6.27;2.10;;;4.40;69.80;;;;;;6219139;23;20027;-77
2021/03/18 01:55:26;;;;;;;6.17;2.33;;;4.40;69.80;;;;;;6246552;23;19992;-77
2021/03/18 01:57:52;;;;;;;4.23;2.23;;;4.30;70.20;;;;;;6219381;23;20550;-77
2021/03/18 02:00:18;;;;;;;7.47;2.30;;;4.20;70.20;;;;;;6220149;23;20040;-77
2021/03/18 02:02:44;;;;;;;8.53;2.53;;;4.20;70.40;;;;;;6245969;23;20079;-78
2021/03/18 02:05:12;;;;;;;6.90;2.73;;;4.10;70.90;;;;;;6219518;23;20403;-77
2021/03/18 02:07:38;;;;;;;8.60;2.87;;;4.00;71.50;;;;;;6246691;23;20058;-76
2021/03/18 02:10:05;;;;;;;5.77;2.63;;;3.90;71.50;;;;;;6219470;23;20039;-76
2021/03/18 02:12:30;;;;;;;6.83;2.50;;;3.90;71.20;;;;;;6220307;23;20004;-76
2021/03/18 02:14:56;;;;;;;7.73;3.27;;;3.80;71.20;;;;;;6245844;23;20542;-76
2021/03/18 02:17:42;;;;;;;6.53;3.03;;;3.80;71.30;;;;;;6246614;23;20157;-76
2021/03/18 02:20:07;;;;;;;5.60;2.60;;;3.70;71.50;;;;;;6144609;23;20062;-77
2021/03/18 02:22:54;;;;;;;8.13;2.57;;;3.70;71.40;;;;;;6219894;23;20008;-77
2021/03/18 02:25:33;;;;;;;6.23;3.00;;;3.60;71.40;;;;;;6246385;23;20008;-77
2021/03/18 02:28:45;;;;;;;5.87;2.70;;;3.50;71.60;;;;;;6219427;23;20000;-77
2021/03/18 02:31:14;;;;;;;6.75;2.40;;;3.50;72.40;;;;;;6219473;23;20004;-77
2021/03/18 02:34:11;;;;;;;6.10;2.73;;;3.60;72.20;;;;;;6246450;23;20001;-76
2021/03/18 02:36:46;;;;;;;8.43;2.73;;;3.60;72.30;;;;;;6246338;23;20012;-76
2021/03/18 02:39:18;;;;;;;8.30;3.27;;;3.60;72.10;;;;;;6219963;23;20042;-76
2021/03/18 02:41:49;;;;;;;4.68;2.55;;;3.80;71.20;;;;;;6220030;23;20091;-77
2021/03/18 02:44:20;;;;;;;6.00;2.92;;;3.70;71.20;;;;;;6219841;23;19996;-77
2021/03/18 02:46:52;;;;;;;5.93;2.83;;;3.70;70.70;;;;;;6218773;23;20031;-77
2021/03/18 02:49:19;;;;;;;6.03;2.65;;;3.70;70.60;;;;;;6219774;23;20000;-76
2021/03/18 02:51:45;;;;;;;4.67;2.63;;;3.60;70.70;;;;;;6218826;23;19996;-77
2021/03/18 02:54:12;;;;;;;5.40;2.70;;;3.60;71.00;;;;;;6218910;23;20008;-76
2021/03/18 02:56:42;;;;;;;6.83;2.57;;;3.60;71.70;;;;;;6219457;23;19997;-77
2021/03/18 02:59:10;;;;;;;7.77;3.00;;;3.40;72.30;;;;;;6219441;23;20000;-76
2021/03/18 03:01:39;;;;;;;8.93;2.90;;;3.50;72.40;;;;;;6219698;23;20008;-76
2021/03/18 03:04:05;;;;;;;6.83;2.60;;;3.40;72.80;;;;;;6245103;23;20000;-76
2021/03/18 03:06:32;;;;;;;5.57;2.40;;;3.40;72.70;;;;;;6219449;23;20027;-76
2021/03/18 03:09:00;;;;;;;5.40;2.10;;;3.40;73.40;;;;;;6218238;23;20078;-75
2021/03/18 03:11:27;;;;;;;7.73;2.63;;;3.30;74.00;;;;;;6219318;23;20008;-76
2021/03/18 03:13:55;;;;;;;5.10;2.70;;;3.30;74.10;;;;;;6245468;23;19996;-76
2021/03/18 03:16:23;;;;;;;5.10;2.73;;;3.20;74.30;;;;;;6219217;23;20486;-76
2021/03/18 03:18:50;;;;;;;5.47;2.47;;;3.20;74.80;;;;;;6245270;23;20008;-75
2021/03/18 03:21:17;;;;;;;6.03;2.33;;;3.00;75.20;;;;;;6218984;23;20023;-76
2021/03/18 03:23:44;;;;;;;4.30;2.40;;;2.90;75.60;;;;;;6244902;23;20489;-76
2021/03/18 03:26:11;;;;;;;6.00;2.30;;;2.90;75.80;;;;;;6218832;23;20035;-76
2021/03/18 03:28:38;;;;;;;5.60;2.23;;;2.90;75.70;;;;;;6219223;23;20008;-76
2021/03/18 03:31:04;;;;;;;6.67;2.40;;;2.80;75.80;;;;;;6245310;23;20004;-76
2021/03/18 03:33:30;;;;;;;3.60;2.20;;;2.80;76.10;;;;;;6218781;23;20010;-76
2021/03/18 03:35:57;;;;;;;4.57;2.50;;;2.70;76.10;;;;;;6218273;23;20328;-76
2021/03/18 03:38:23;;;;;;;7.20;2.40;;;2.70;76.40;;;;;;6218097;23;20035;-76
2021/03/18 03:40:50;;;;;;;5.17;2.40;;;2.80;76.50;;;;;;6245251;23;20428;-76
2021/03/18 03:43:17;;;;;;;8.03;2.73;;;2.80;76.80;;;;;;6245672;23;19996;-76
2021/03/18 03:45:43;;;;;;;6.87;2.90;;;2.80;77.40;;;;;;6245295;23;20000;-77
2021/03/18 03:48:09;;;;;;;5.67;2.90;;;2.70;76.70;;;;;;6219024;23;19996;-76
2021/03/18 03:50:36;;;;;;;4.63;2.53;;;2.80;76.40;;;;;;6219138;23;20006;-76
2021/03/18 03:53:29;;;;;;;5.67;2.70;;;2.70;76.40;;;;;;6218028;23;20001;-77
2021/03/18 03:56:04;;;;;;;6.83;2.50;;;2.80;76.40;;;;;;6217830;23;20004;-77
2021/03/18 03:58:53;;;;;;;8.87;3.20;;;2.80;76.40;;;;;;6245573;23;20004;-76
2021/03/18 04:01:43;;;;;;;6.73;2.73;;;2.80;76.60;;;;;;6218562;23;20032;-76
2021/03/18 04:04:20;;;;;;;5.03;2.47;;;2.90;76.50;;;;;;6218907;23;20058;-76
2021/03/18 04:06:50;;;;;;;7.03;3.10;;;3.00;76.20;;;;;;6244861;23;20027;-75
2021/03/18 04:09:18;;;;;;;6.00;2.90;;;3.10;75.50;;;;;;6218647;23;20015;-73
2021/03/18 04:11:45;;;;;;;7.07;3.53;;;3.10;75.10;;;;;;6217979;23;20008;-76
2021/03/18 04:14:13;;;;;;;5.20;2.60;;;3.10;75.50;;;;;;6245133;23;20031;-75
2021/03/18 04:16:43;;;;;;;5.43;3.13;;;3.00;75.80;;;;;;6218772;23;20005;-75
2021/03/18 04:19:14;;;;;;;5.67;2.70;;;3.00;76.00;;;;;;6245514;23;20027;-76
2021/03/18 04:21:42;;;;;;;4.43;2.60;;;2.90;75.80;;;;;;6219066;23;20004;-75
2021/03/18 04:24:10;;;;;;;7.47;2.70;;;2.90;76.30;;;;;;6245854;23;19996;-76
2021/03/18 04:26:38;;;;;;;6.50;2.90;;;2.90;76.40;;;;;;6245378;23;19996;-76
2021/03/18 04:29:06;;;;;;;5.17;2.63;;;2.90;76.50;;;;;;6217672;23;20049;-76
2021/03/18 04:31:37;;;;;;;5.97;2.93;;;2.90;76.60;;;;;;6245118;23;20005;-76
2021/03/18 04:34:05;;;;;;;4.63;2.40;;;2.80;76.30;;;;;;6217632;23;20000;-76
2021/03/18 04:36:31;;;;;;;5.67;2.93;;;2.90;75.70;;;;;;6245019;23;20008;-76
2021/03/18 04:38:58;;;;;;;7.63;2.80;;;2.90;76.00;;;;;;6218064;23;20015;-76
2021/03/18 04:41:26;;;;;;;8.27;2.90;;;2.90;76.40;;;;;;6245592;23;20024;-77
2021/03/18 04:43:52;;;;;;;6.00;3.07;;;2.90;76.10;;;;;;6245038;23;19996;-76
2021/03/18 04:46:19;;;;;;;4.93;3.10;;;2.90;76.00;;;;;;6218571;23;20111;-76
2021/03/18 04:48:46;;;;;;;4.87;2.57;;;2.90;76.20;;;;;;6245033;23;20449;-77
2021/03/18 04:51:12;;;;;;;6.80;2.40;;;2.80;76.40;;;;;;6218694;23;20004;-76
2021/03/18 04:53:39;;;;;;;5.03;2.53;;;2.90;76.70;;;;;;6218574;23;20008;-76
2021/03/18 04:56:07;;;;;;;7.23;2.67;;;2.90;76.80;;;;;;6217902;23;20054;-76
2021/03/18 04:58:35;;;;;;;6.17;2.57;;;2.90;76.80;;;;;;6245338;23;20047;-76
2021/03/18 05:01:01;;;;;;;6.60;2.80;;;2.90;76.70;;;;;;6217502;23;20039;-76
2021/03/18 05:03:28;;;;;;;6.43;2.87;;;2.90;76.80;;;;;;6218486;23;20361;-76
2021/03/18 05:05:58;;;;;;;5.83;3.10;;;2.90;76.80;;;;;;6217998;23;20087;-75
2021/03/18 05:08:26;;;;;;;4.83;2.50;;;2.90;76.50;;;;;;6247056;23;20011;-77
2021/03/18 05:10:52;;;;;;;6.77;2.80;;;2.90;76.30;;;;;;6220159;23;20008;-76
2021/03/18 05:13:18;;;;;;;6.63;2.60;;;3.00;76.30;;;;;;6247409;23;20315;-77
2021/03/18 05:15:45;;;;;;;4.57;2.60;;;3.10;76.50;;;;;;6220088;23;20084;-78
2021/03/18 05:18:13;;;;;;;5.23;2.73;;;3.10;77.10;;;;;;6220579;23;20438;-76
2021/03/18 05:20:40;;;;;;;10.27;2.97;;;3.10;76.80;;;;;;6220898;23;20501;-77
2021/03/18 05:23:07;;;;;;;6.67;2.60;;;3.20;76.90;;;;;;6220148;23;20403;-77
2021/03/18 05:25:34;;;;;;;7.40;2.60;;;3.20;77.30;;;;;;6220798;23;20043;-76
2021/03/18 05:28:01;;;;;;;5.33;2.67;;;3.10;76.70;;;;;;6246797;23;20419;-76
2021/03/18 05:30:29;;;;;;;5.80;2.93;;;3.30;77.00;;;;;;6220240;23;20502;-76
2021/03/18 05:33:00;;;;;;;4.97;2.70;;;3.30;76.70;;;;;;6219471;23;20000;-77
2021/03/18 05:35:26;;;;;;;6.80;2.93;;;3.20;76.60;;;;;;6220288;23;20004;-76
2021/03/18 05:37:53;;;;;;;7.20;2.40;;;3.10;77.20;;;;;;6213920;23;20023;-77
2021/03/18 05:40:20;;;;;;;4.33;2.53;;;3.10;78.10;;;;;;6217120;23;20009;-76
2021/03/18 05:42:47;;;;;;;6.47;2.50;;;3.00;78.30;;;;;;6216087;23;20494;-77
2021/03/18 05:45:15;;;;;;;5.23;2.47;;;2.90;78.50;;;;;;6214412;23;20000;-77
2021/03/18 05:47:41;;;;;;;5.00;2.50;;;3.00;79.00;;;;;;6215077;23;20004;-76
2021/03/18 05:50:18;;;;;;;5.47;2.40;;;3.10;78.40;;;;;;6214696;23;20032;-76
2021/03/18 05:52:47;;;;;;;4.10;2.73;;;3.20;78.00;;;;;;6214797;23;20400;-77
2021/03/18 05:55:17;;;;;;;7.80;2.87;;;3.10;77.80;;;;;;6215257;23;20005;-76
2021/03/18 05:57:47;;;;;;;7.73;3.10;;;3.00;77.20;;;;;;6215247;23;19993;-77
2021/03/18 06:00:14;;;;;;;8.53;2.80;;;2.80;77.50;;;;;;6215048;23;20332;-76
2021/03/18 06:02:41;;;;;;;5.53;2.80;;;2.90;77.50;;;;;;6214798;23;20007;-75
2021/03/18 06:05:10;;;;;;;4.47;2.57;;;2.90;77.30;;;;;;6214278;23;20305;-76
2021/03/18 06:07:37;;;;;;;5.37;3.00;;;3.00;77.30;;;;;;6216074;23;20019;-76
2021/03/18 06:10:08;;;;;;;8.50;3.03;;;3.00;77.80;;;;;;6214221;23;20031;-74
2021/03/18 06:12:39;;;;;;;5.30;2.80;;;3.00;77.00;;;;;;6216074;23;19996;-76
2021/03/18 06:15:09;;;;;;;7.23;3.60;;;2.90;77.30;;;;;;6213829;23;20054;-77
2021/03/18 06:17:36;;;;;;;8.73;3.90;;;3.00;77.40;;;;;;6214721;23;20007;-76
2021/03/18 06:20:05;;;;;;;6.97;3.40;;;3.00;77.80;;;;;;6213821;23;20075;-77
2021/03/18 06:22:41;;;;;;;11.67;4.00;;;3.00;78.10;;;;;;6214955;23;20048;-76
2021/03/18 06:25:20;;;;;;;7.97;3.37;;;3.00;78.30;;;;;;6214114;23;20011;-77
2021/03/18 06:27:47;;;;;;;7.23;3.43;;;3.00;78.10;;;;;;6213610;23;20004;-77
2021/03/18 06:30:14;;;;;;;7.27;3.27;;;3.00;78.00;;;;;;6214706;23;20015;-76
2021/03/18 06:32:39;;;;;;;12.33;3.70;;;3.10;78.20;;;;;;6216374;23;20000;-76
2021/03/18 06:35:08;;;;;;;9.90;3.93;;;3.10;78.60;;;;;;6215359;23;20120;-77
2021/03/18 06:37:37;;;;;;;8.87;3.70;;;3.10;78.80;;;;;;6234713;23;20042;-77
2021/03/18 06:40:05;;;;;;;8.77;3.87;;;3.00;78.60;;;;;;6245611;23;20050;-77
2021/03/18 06:42:32;;;;;;;5.43;3.37;;;3.10;78.10;;;;;;6246428;23;20004;-77
2021/03/18 06:45:11;;;;;;;8.67;4.10;;;3.00;78.10;;;;;;6245942;23;20445;-77
2021/03/18 06:47:55;;;;;;;12.50;4.87;;;3.00;78.90;;;;;;6246465;23;20007;-77
2021/03/18 06:50:30;;;;;;;9.43;4.50;;;3.00;78.00;;;;;;6219446;23;20000;-77
2021/03/18 06:52:56;;;;;;;11.03;4.40;;;2.90;78.00;;;;;;6218755;23;20055;-76
2021/03/18 06:55:28;;;;;;;8.07;3.83;;;3.00;78.10;;;;;;6245909;23;20004;-76
2021/03/18 06:58:28;;;;;;;8.98;4.03;;;3.10;77.40;;;;;;6218384;23;19996;-76
2021/03/18 07:01:00;;;;;;;13.60;4.10;;;3.00;77.90;;;;;;6218493;23;20011;-76
2021/03/18 07:03:39;;;;;;;9.05;3.83;;;3.10;78.10;;;;;;6246000;23;20000;-76
2021/03/18 07:06:24;;;;;;;7.93;3.83;;;3.10;78.10;;;;;;6218636;23;20000;-76
2021/03/18 07:09:11;;;;;;;7.00;3.50;;;3.10;78.10;;;;;;6218562;23;20331;-75
2021/03/18 07:11:42;;;;;;;8.63;4.07;;;3.10;77.60;;;;;;6219360;23;20008;-76
2021/03/18 07:14:09;;;;;;;5.95;2.55;;;3.10;77.60;;;;;;6245727;23;19997;-76
2021/03/18 07:16:42;;;;;;;7.77;3.73;;;3.10;77.00;;;;;;6219204;23;20004;-75
2021/03/18 07:19:09;;;;;;;8.73;3.60;;;3.10;75.20;;;;;;6218966;23;20043;-76
2021/03/18 07:21:39;;;;;;;7.10;3.67;;;3.10;75.50;;;;;;6245533;23;20004;-76
2021/03/18 07:24:28;;;;;;;9.37;3.73;;;3.20;75.00;;;;;;6218491;23;20004;-76
2021/03/18 07:26:56;;;;;;;7.30;3.10;;;3.20;76.00;;;;;;6195333;23;20027;-77
2021/03/18 07:29:27;;;;;;;7.43;3.40;;;3.20;75.20;;;;;;6218994;23;20012;-75
2021/03/18 07:31:53;;;;;;;5.50;2.87;;;3.30;74.00;;;;;;6218253;23;20059;-76
2021/03/18 07:34:19;;;;;;;7.93;3.40;;;3.30;72.80;;;;;;6245914;23;20083;-76
2021/03/18 07:36:46;;;;;;;7.37;3.30;;;3.30;72.60;;;;;;6218083;23;20016;-76
2021/03/18 07:39:13;;;;;;;7.47;3.20;;;3.40;72.60;;;;;;6244880;23;20054;-76
2021/03/18 07:41:39;;;;;;;5.27;2.87;;;3.40;72.90;;;;;;6218814;23;20008;-76
2021/03/18 07:44:06;;;;;;;5.83;3.13;;;3.50;72.60;;;;;;6218281;23;20458;-75
2021/03/18 07:46:35;;;;;;;8.20;3.07;;;3.50;71.80;;;;;;6245493;23;19996;-75
2021/03/18 07:49:22;;;;;;;7.93;3.10;;;3.60;71.50;;;;;;6244625;23;20055;-76
2021/03/18 07:51:52;;;;;;;6.17;2.60;;;3.60;71.00;;;;;;6244678;23;19993;-76
2021/03/18 07:54:21;;;;;;;9.53;3.10;;;3.60;71.20;;;;;;6245575;23;20078;-75
2021/03/18 07:56:48;;;;;;;6.10;2.70;;;3.60;70.60;;;;;;6244637;23;20471;-76
2021/03/18 07:59:15;;;;;;;9.43;3.20;;;3.60;70.00;;;;;;6217722;23;20007;-75
2021/03/18 08:01:41;;;;;;;7.97;3.03;;;3.60;70.30;;;;;;6218295;23;20008;-75
2021/03/18 08:04:09;;;;;;;4.03;2.50;;;3.60;70.30;;;;;;6218074;23;20024;-76
2021/03/18 08:06:41;;;;;;;5.33;2.50;;;3.70;70.90;;;;;;6219105;23;20054;-77
2021/03/18 08:09:09;;;;;;;7.88;3.05;;;3.70;70.10;;;;;;6217960;23;20062;-76
2021/03/18 08:11:39;;;;;;;6.80;3.00;;;3.80;70.20;;;;;;6244907;23;20007;-76
2021/03/18 08:14:12;;;;;;;6.93;2.53;;;3.80;70.30;;;;;;6217864;23;20011;-76
2021/03/18 08:16:38;;;;;;;9.50;2.80;;;3.80;69.70;;;;;;6219107;23;20004;-78
2021/03/18 08:19:06;;;;;;;7.70;2.87;;;3.80;68.00;;;;;;6244826;23;20082;-77
2021/03/18 08:21:35;;;;;;;6.27;3.00;;;4.00;67.90;;;;;;6245209;23;20008;-77
2021/03/18 08:24:03;;;;;;;5.50;2.70;;;3.90;67.20;;;;;;6218301;23;20008;-76
2021/03/18 08:26:39;;;;;;;8.30;2.70;;;4.00;67.30;;;;;;6218559;23;20030;-77
2021/03/18 08:29:12;;;;;;;5.63;2.43;;;4.00;66.80;;;;;;6217604;23;20095;-76
2021/03/18 08:31:45;;;;;;;7.33;2.90;;;3.90;66.10;;;;;;6218553;23;20007;-76
2021/03/18 08:34:12;;;;;;;5.00;2.70;;;3.90;66.30;;;;;;6218600;23;20004;-73
2021/03/18 08:36:55;;;;;;;6.17;2.90;;;3.90;66.50;;;;;;6213210;23;20023;-75
2021/03/18 08:39:51;;;;;;;8.73;3.13;;;3.90;66.40;;;;;;6213333;23;20023;-76
2021/03/18 08:42:29;;;;;;;6.77;2.67;;;4.10;67.00;;;;;;6216992;23;20109;-77
2021/03/18 08:45:01;;;;;;;6.63;3.13;;;4.10;66.10;;;;;;6217977;23;20008;-77
2021/03/18 08:47:45;;;;;;;5.53;2.57;;;4.20;66.00;;;;;;6217209;23;20004;-78
2021/03/18 08:50:34;;;;;;;7.33;2.70;;;4.20;65.50;;;;;;6216887;23;20001;-77
2021/03/18 08:53:04;;;;;;;6.23;2.90;;;4.30;67.00;;;;;;6200182;23;20001;-76
2021/03/18 08:55:36;;;;;;;6.27;2.20;;;4.30;66.30;;;;;;6217844;23;20001;-76
2021/03/18 08:58:03;;;;;;;7.97;2.77;;;4.30;65.30;;;;;;6217619;23;19997;-76
2021/03/18 09:00:30;;;;;;;4.63;2.50;;;4.40;65.10;;;;;;6216463;23;20479;-77
2021/03/18 09:02:55;;;;;;;5.33;2.77;;;4.30;64.50;;;;;;6217944;23;20004;-76
2021/03/18 09:05:22;;;;;;;5.40;2.60;;;4.40;64.60;;;;;;6218500;23;20527;-77
2021/03/18 09:07:53;;;;;;;7.20;2.90;;;4.40;64.30;;;;;;6215962;23;20301;-76
2021/03/18 09:10:24;;;;;;;7.77;3.07;;;4.50;65.10;;;;;;6216466;23;20135;-75
2021/03/18 09:12:53;;;;;;;7.93;2.63;;;4.60;64.70;;;;;;6217080;23;19996;-74
2021/03/18 09:15:27;;;;;;;7.70;3.17;;;4.70;64.40;;;;;;6216568;23;20084;-76
2021/03/18 09:17:55;;;;;;;8.93;2.60;;;4.80;64.20;;;;;;6217790;23;20084;-76
2021/03/18 09:20:25;;;;;;;6.60;3.17;;;4.80;64.00;;;;;;6217273;23;20420;-76
2021/03/18 09:22:52;;;;;;;6.20;2.90;;;4.80;63.40;;;;;;6217316;23;20011;-76
2021/03/18 09:25:26;;;;;;;7.87;3.17;;;4.80;63.30;;;;;;6216279;23;20008;-76
2021/03/18 09:27:52;;;;;;;4.63;2.60;;;5.00;63.60;;;;;;6215657;23;20009;-76
2021/03/18 09:30:29;;;;;;;4.77;2.60;;;5.00;62.60;;;;;;6216755;23;20004;-76
2021/03/18 09:32:55;;;;;;;7.07;2.77;;;5.10;62.80;;;;;;6216471;23;20432;-76
2021/03/18 09:35:22;;;;;;;7.83;2.73;;;5.10;62.70;;;;;;6217210;23;20368;-75
2021/03/18 09:37:49;;;;;;;5.87;2.57;;;5.10;64.50;;;;;;6215253;23;20023;-76
2021/03/18 09:40:16;;;;;;;5.40;2.63;;;5.20;65.10;;;;;;6216157;23;20009;-74
2021/03/18 09:42:42;;;;;;;4.57;2.40;;;5.20;64.10;;;;;;6217754;23;20416;-75
2021/03/18 09:45:16;;;;;;;7.37;2.73;;;5.20;63.80;;;;;;6217525;23;20004;-76
2021/03/18 09:47:47;;;;;;;6.67;2.80;;;5.40;64.10;;;;;;6216374;23;20008;-76
2021/03/18 09:50:13;;;;;;;6.78;3.03;;;5.40;63.60;;;;;;6216261;23;20016;-74
2021/03/18 09:52:39;;;;;;;7.13;2.70;;;5.40;62.80;;;;;;6217385;23;19996;-75
2021/03/18 09:55:11;;;;;;;5.97;2.60;;;5.40;63.30;;;;;;6214003;23;20005;-76
2021/03/18 09:57:37;;;;;;;5.97;2.90;;;5.50;61.70;;;;;;6215202;23;19996;-76
2021/03/18 10:00:08;;;;;;;4.23;2.27;;;5.50;61.40;;;;;;6215258;23;20195;-76
2021/03/18 10:02:34;;;;;;;7.87;2.20;;;5.50;61.20;;;;;;6213778;23;20071;-76
2021/03/18 10:05:00;;;;;;;6.30;2.57;;;5.50;60.00;;;;;;6214512;23;20004;-77
2021/03/18 10:07:31;;;;;;;5.00;2.80;;;5.60;61.20;;;;;;6216710;23;20113;-76
2021/03/18 10:09:57;;;;;;;9.30;2.97;;;5.60;61.40;;;;;;6216202;23;20008;-78
2021/03/18 10:12:25;;;;;;;8.03;2.40;;;5.70;62.70;;;;;;6215978;23;20317;-78
2021/03/18 10:15:01;;;;;;;8.23;3.00;;;5.70;62.40;;;;;;6214957;23;20327;-78
2021/03/18 10:17:35;;;;;;;7.00;2.43;;;5.70;61.60;;;;;;6215171;23;20450;-77
2021/03/18 10:20:11;;;;;;;7.43;2.60;;;5.70;61.70;;;;;;6214838;23;20005;-77
2021/03/18 10:22:40;;;;;;;6.90;2.97;;;5.70;61.30;;;;;;6217355;23;20008;-79
2021/03/18 10:25:09;;;;;;;4.87;2.67;;;5.60;62.20;;;;;;6214872;23;20008;-80
2021/03/18 10:27:41;;;;;;;5.77;2.60;;;5.60;62.90;;;;;;6216502;23;20007;-77
2021/03/18 10:30:07;;;;;;;;;;;5.70;63.50;;;;;;6214873;23;20034;-79
2021/03/18 10:32:33;;;;;;;6.57;2.60;;;5.80;61.80;;;;;;6215096;23;19983;-77
2021/03/18 10:34:58;;;;;;;13.13;3.07;;;5.70;61.90;;;;;;6215705;23;19992;-76
2021/03/18 10:37:24;;;;;;;4.97;2.57;;;5.80;61.80;;;;;;6232722;23;20041;-76
2021/03/18 10:40:04;;;;;;;5.60;2.13;;;5.70;61.40;;;;;;6219172;23;20309;-76
2021/03/18 10:42:30;;;;;;;5.47;2.20;;;5.70;61.20;;;;;;6220989;23;20372;-76
2021/03/18 10:44:56;;;;;;;5.33;2.20;;;5.80;61.30;;;;;;6219160;23;19996;-76
2021/03/18 10:47:22;;;;;;;7.70;2.10;;;5.70;59.60;;;;;;6220227;23;20028;-76
2021/03/18 10:50:05;;;;;;;5.97;2.17;;;5.80;60.00;;;;;;6219396;23;20004;-75
2021/03/18 10:52:32;;;;;;;4.50;2.23;;;5.90;59.70;;;;;;6218811;23;20000;-73
2021/03/18 10:54:59;;;;;;;4.93;2.20;;;5.90;60.30;;;;;;6217951;23;20087;-74
2021/03/18 10:57:25;;;;;;;4.53;2.20;;;6.00;58.60;;;;;;6218314;23;20035;-74
2021/03/18 10:59:59;;;;;;;7.00;2.67;;;6.10;58.30;;;;;;6217885;23;20007;-73
2021/03/18 11:02:25;;;;;;;4.30;1.97;;;6.10;57.50;;;;;;6218839;23;20043;-74
2021/03/18 11:04:56;;;;;;;4.03;2.30;;;6.20;57.80;;;;;;6244128;23;20067;-73
2021/03/18 11:07:22;;;;;;;5.07;2.07;;;6.20;58.10;;;;;;6218948;23;20058;-75
2021/03/18 11:10:12;;;;;;;5.27;2.13;;;6.20;58.20;;;;;;6218635;23;20000;-77
2021/03/18 11:12:40;;;;;;;5.10;2.10;;;6.40;58.70;;;;;;6220017;23;20026;-77
2021/03/18 11:15:08;;;;;;;4.87;1.83;;;6.50;57.20;;;;;;6245756;23;20071;-76
2021/03/18 11:17:34;;;;;;;4.27;2.03;;;6.50;56.10;;;;;;6246206;23;19999;-77
2021/03/18 11:20:11;;;;;;;4.90;1.77;;;6.60;54.90;;;;;;6218782;23;20000;-77
2021/03/18 11:22:36;;;;;;;6.23;1.80;;;6.70;53.80;;;;;;6246456;23;20332;-77
2021/03/18 11:25:04;;;;;;;3.60;1.73;;;6.70;53.90;;;;;;6245431;23;19999;-77
2021/03/18 11:27:31;;;;;;;2.87;1.73;;;6.70;54.40;;;;;;6219788;23;20100;-77
2021/03/18 11:29:57;;;;;;;17.60;8.57;;;6.80;54.50;;;;;;6218057;23;20011;-77
2021/03/18 11:32:25;;;;;;;5.37;2.30;;;6.90;55.20;;;;;;6246418;23;20001;-77
2021/03/18 11:34:59;;;;;;;5.03;1.93;;;7.00;53.00;;;;;;6245112;23;20000;-77
2021/03/18 11:37:25;;;;;;;6.83;1.97;;;7.20;53.50;;;;;;6218827;23;20052;-76
2021/03/18 11:39:51;;;;;;;4.03;1.50;;;7.30;54.40;;;;;;6218698;23;20009;-77
2021/03/18 11:42:17;;;;;;;3.27;1.60;;;7.60;54.10;;;;;;6245925;23;20426;-78
2021/03/18 11:44:43;;;;;;;3.57;1.60;;;7.80;52.40;;;;;;6219772;23;19996;-78
2021/03/18 11:47:11;;;;;;;4.00;1.60;;;8.00;52.10;;;;;;6217431;23;20054;-77
2021/03/18 11:49:39;;;;;;;2.83;1.20;;;8.10;51.20;;;;;;6219909;23;20004;-77
2021/03/18 11:52:06;;;;;;;4.13;1.30;;;8.20;50.00;;;;;;6219226;23;20371;-79
2021/03/18 11:54:32;;;;;;;3.03;1.40;;;8.40;49.50;;;;;;6219246;23;20000;-77
2021/03/18 11:56:58;;;;;;;2.70;1.30;;;8.40;48.00;;;;;;6219108;23;20000;-79
2021/03/18 11:59:24;;;;;;;3.10;1.73;;;8.40;47.10;;;;;;6219023;23;20435;-77
2021/03/18 12:01:50;;;;;;;3.17;1.43;;;8.40;47.60;;;;;;6218466;23;20431;-78
2021/03/18 12:04:16;;;;;;;5.43;1.73;;;8.40;48.50;;;;;;6219123;23;20000;-76
2021/03/18 12:06:41;;;;;;;4.60;1.80;;;8.30;48.40;;;;;;6245771;23;19997;-79
2021/03/18 12:09:07;;;;;;;4.43;2.03;;;8.30;49.20;;;;;;6244600;23;20004;-78
2021/03/18 12:11:35;;;;;;;3.67;1.87;;;8.20;49.30;;;;;;6218904;23;20043;-77
2021/03/18 12:14:01;;;;;;;3.00;1.67;;;8.40;50.40;;;;;;6218128;23;20004;-77
2021/03/18 12:16:27;;;;;;;3.17;1.57;;;8.40;49.30;;;;;;6244888;23;19993;-77
2021/03/18 12:18:52;;;;;;;3.17;1.50;;;8.40;48.60;;;;;;6217703;23;20051;-77
2021/03/18 12:21:18;;;;;;;3.73;1.60;;;8.40;48.00;;;;;;6218831;23;20009;-77
2021/03/18 12:23:44;;;;;;;5.80;1.60;;;8.40;48.20;;;;;;6218419;23;20020;-77
2021/03/18 12:26:10;;;;;;;2.17;1.43;;;8.40;48.50;;;;;;6218641;23;20011;-77
2021/03/18 12:28:36;;;;;;;4.53;1.57;;;8.40;48.20;;;;;;6217782;23;20331;-77
2021/03/18 12:31:01;;;;;;;3.57;1.50;;;8.40;48.10;;;;;;6244639;23;20001;-77
2021/03/18 12:33:27;;;;;;;3.03;1.80;;;8.30;48.00;;;;;;6219084;23;20081;-78
2021/03/18 12:35:53;;;;;;;2.47;1.53;;;8.50;47.40;;;;;;6218234;23;20420;-78
2021/03/18 12:38:21;;;;;;;2.83;1.20;;;8.60;46.70;;;;;;6213526;23;20021;-78
2021/03/18 12:40:53;;;;;;;3.38;1.58;;;8.90;46.60;;;;;;6213667;23;20095;-78
2021/03/18 12:43:22;;;;;;;5.50;1.67;;;9.30;45.90;;;;;;6215415;23;19993;-79
2021/03/18 12:45:48;;;;;;;3.22;1.40;;;9.40;46.00;;;;;;6213420;23;20083;-77
2021/03/18 12:48:14;;;;;;;3.80;1.52;;;9.40;46.50;;;;;;6213865;23;20001;-77
2021/03/18 12:50:40;;;;;;;2.15;1.20;;;9.20;45.60;;;;;;6213760;23;20316;-78
2021/03/18 12:53:06;;;;;;;2.42;1.45;;;9.20;45.00;;;;;;6214586;23;20109;-80
2021/03/18 12:55:32;;;;;;;3.22;1.40;;;9.10;45.30;;;;;;6215400;23;20494;-78
2021/03/18 12:57:58;;;;;;;3.30;1.27;;;9.10;44.70;;;;;;6213196;23;20000;-78
2021/03/18 13:00:27;;;;;;;5.95;1.40;;;9.20;44.00;;;;;;6214008;23;20008;-78
2021/03/18 13:02:52;;;;;;;2.05;1.27;;;9.30;43.90;;;;;;6214064;23;20063;-80
2021/03/18 13:05:19;;;;;;;3.42;1.30;;;9.60;43.60;;;;;;6213658;23;20005;-79
2021/03/18 13:07:44;;;;;;;2.67;1.08;;;10.10;42.90;;;;;;6213832;23;20012;-80
2021/03/18 13:10:11;;;;;;;1.52;1.20;;;10.20;42.10;;;;;;6213480;23;20009;-79